Kangerlussuaq

KL  EN  DA
ASIAQ
Weather Now GREENLAND SURVEY
Updated [WGT/WGST] Temperature [°C] Wind [m/s] Air pressure [hPa] Relative humidity [%] Precipitation [mm]
Present Wind chill Speed Max
21.01 18:00-24,5-34,44,0 ⇙4,81009750,0
21.01 17:00-24,1-34,14,2 ⇙5,31009750,0
21.01 16:00-23,8-32,73,4 ⇙4,21009750,0
21.01 15:00-23,4-31,42,9 ⇙3,31009750,0
21.01 14:00-24,1-33,94,0 ⇙4,71008750,0
21.01 13:00-25,0-34,43,6 ⇙4,81008750,0
21.01 12:00-24,6-34,84,2 ⇙5,0100874-0,1
21.01 11:00-24,1-33,13,4 ⇙4,61008740,0
21.01 10:00-23,8-33,03,6 ⇙4,61007750,0
21.01 09:00-23,9-33,53,9 ⇙5,41006740,0
21.01 08:00-23,5-32,93,8 ⇙4,71006760,0
21.01 07:00-24,0-33,43,7 ⇙4,81005760,0
21.01 06:00-24,2-32,63,0 ⇙4,01004770,0
21.01 05:00-23,5-31,62,9 ⇙3,61004760,0
21.01 04:00-24,0-31,82,7 ⇙3,71003770,0
21.01 03:00-22,90,01,0 ⇐1,41001750,0
21.01 02:00-23,50,01,2 ⇐1,51001780,0
21.01 01:00-23,90,00,9 ⇙1,41000770,0
21.01 00:00-24,60,01,2 ⇐1,5999740,0
20.01 23:00-21,50,01,3 ⇙1,7999740,0
20.01 22:00-20,80,00,8 ⇖1,2998740,0
20.01 21:00-20,2-25,51,8 ⇐2,0997710,0
20.01 20:00-19,40,01,1 ⇙1,699774-0,2
20.01 19:00-19,40,01,3 ⇖1,699674-0,1
20.01 18:00-18,8-25,12,4 ⇐2,899574-0,2
Position: (67.013333333333,-50.72712222)

[Back]